»·PEaware :: WAT234 KPHX-KSAN

WAT234 :: KPHX-KSAN

FLIGHT INFORMATION

Flight Status: Arrived
Operator:
Walker Air Transport
More flights by this operator :: More flights under this callsign
Pilot: Eduardo Elias G. (24838)
Aircraft: BOEING 747-400 (WINGLETS)
(B744)
More flights by this aircraft type
Origin: KPHX Phoenix Sky Harbor Intl
United States
Destination: KSAN San Diego Intl-Lindbergh
United States
More flights between these airports :: More routes between these airports
Route: +FYRBD1 MOHAK J2 HOGGZ LUCKI1
File this flight plan on PilotEdge
Remarks:
Altitude:
(Current/Filed)
32,000ft
Speed:
(Current/Filed)
460kts
Departed: 18-Aug-20 08:37 PM
Arrived: 18-Aug-20 09:21 PM
Distance/Time
Traveled:
265nm/0:44
Distance/Time
To Go:
Arrived

Flight Plot

Page will automatically refresh every two minutes.

Flight plan parsing failed; only flown route is shown


Map Options




Map Legend


Flown Route
Filed Route
Departure Airport
Arrival Airport
Navaid (VOR, NDB)
Fix

Horizontal Profiles

Position Reports

Time Latitude Longitude Heading Altitude Ground
Speed
18-Aug-20 20:07 33.434098 -112.009469 82 1148ft 0kts
18-Aug-20 20:08 33.434098 -112.009469 82 1148ft 0kts
18-Aug-20 20:09 33.434098 -112.009469 82 1148ft 0kts
18-Aug-20 20:10 33.434098 -112.009469 82 1148ft 0kts
18-Aug-20 20:11 33.434098 -112.009469 82 1148ft 0kts
18-Aug-20 20:12 33.434098 -112.009469 82 1148ft 0kts
18-Aug-20 20:13 33.434098 -112.009469 82 1148ft 0kts
18-Aug-20 20:14 33.434098 -112.009469 82 1148ft 0kts
18-Aug-20 20:15 33.434098 -112.009469 82 1148ft 0kts
18-Aug-20 20:16 33.434098 -112.009469 82 1148ft 0kts
18-Aug-20 20:17 33.434098 -112.009469 82 1148ft 0kts
18-Aug-20 20:18 33.434098 -112.009469 82 1148ft 0kts
18-Aug-20 20:19 33.434098 -112.009469 82 1148ft 0kts
18-Aug-20 20:20 33.434098 -112.009469 82 1148ft 0kts
18-Aug-20 20:21 33.434098 -112.009469 82 1148ft 0kts
18-Aug-20 20:22 33.434098 -112.009469 82 1148ft 0kts
18-Aug-20 20:23 33.434098 -112.009469 82 1148ft 0kts
18-Aug-20 20:24 33.434098 -112.009469 82 1148ft 0kts
18-Aug-20 20:25 33.434098 -112.009469 82 1148ft 0kts
18-Aug-20 20:26 33.434079 -112.009687 96 1148ft 2kts
18-Aug-20 20:27 33.434550 -112.010324 152 1148ft 2kts
18-Aug-20 20:28 33.434757 -112.010476 136 1148ft 0kts
18-Aug-20 20:29 33.434756 -112.010475 136 1148ft 0kts
18-Aug-20 20:30 33.434756 -112.010474 136 1148ft 0kts
18-Aug-20 20:31 33.432118 -112.008271 89 1148ft 14kts
18-Aug-20 20:32 33.432098 -112.001429 88 1148ft 29kts
18-Aug-20 20:33 33.432129 -111.994475 88 1148ft 0kts
18-Aug-20 20:34 33.432129 -111.994474 88 1148ft 0kts
18-Aug-20 20:35 33.431011 -111.994077 269 1148ft 0kts
18-Aug-20 20:36 33.430857 -112.027621 270 2187ft 196kts
18-Aug-20 20:37 33.419495 -112.097966 250 4705ft 267kts
18-Aug-20 20:38 33.383872 -112.178161 210 7740ft 283kts
18-Aug-20 20:39 33.308879 -112.162548 159 8314ft 287kts
18-Aug-20 20:40 33.234026 -112.175267 224 11223ft 324kts
18-Aug-20 20:41 33.175018 -112.278762 236 12997ft 406kts
18-Aug-20 20:42 33.110537 -112.395244 236 16411ft 433kts
18-Aug-20 20:43 33.041469 -112.518962 235 19714ft 458kts
18-Aug-20 20:44 32.971218 -112.647553 240 22254ft 473kts
18-Aug-20 20:45 32.937353 -112.801632 261 25154ft 491kts
18-Aug-20 20:46 32.917217 -112.960914 261 28855ft 479kts
18-Aug-20 20:47 32.896146 -113.116300 261 31618ft 474kts
18-Aug-20 20:48 32.874902 -113.272324 261 31903ft 495kts
18-Aug-20 20:49 32.851541 -113.442037 261 31876ft 541kts
18-Aug-20 20:50 32.826073 -113.621186 261 31867ft 557kts
18-Aug-20 20:51 32.800309 -113.803278 261 31862ft 557kts
18-Aug-20 20:52 32.775557 -113.984471 265 31855ft 557kts
18-Aug-20 20:53 32.779084 -114.168377 274 31856ft 555kts
18-Aug-20 20:54 32.786223 -114.351611 275 31855ft 555kts
18-Aug-20 20:55 32.826210 -114.527685 290 31857ft 552kts
18-Aug-20 20:56 32.872717 -114.701388 282 31842ft 552kts
18-Aug-20 20:57 32.876641 -114.879652 268 30341ft 519kts
18-Aug-20 20:58 32.872402 -115.046453 268 27741ft 493kts
18-Aug-20 20:59 32.868366 -115.206721 267 25015ft 478kts
18-Aug-20 21:00 32.862931 -115.357925 262 23968ft 474kts
18-Aug-20 21:01 32.840858 -115.511729 258 23648ft 467kts
18-Aug-20 21:02 32.816185 -115.661137 257 21385ft 452kts
18-Aug-20 21:03 32.792179 -115.805780 258 19162ft 438kts
18-Aug-20 21:04 32.777255 -115.950393 265 17683ft 437kts
18-Aug-20 21:05 32.767115 -116.091600 263 15627ft 415kts
18-Aug-20 21:06 32.757397 -116.216891 263 14200ft 361kts
18-Aug-20 21:07 32.748445 -116.333490 263 11764ft 347kts
18-Aug-20 21:08 32.739763 -116.444094 263 10590ft 316kts
18-Aug-20 21:09 32.732034 -116.535950 262 10027ft 250kts
18-Aug-20 21:10 32.724161 -116.616219 262 8667ft 252kts
18-Aug-20 21:11 32.717169 -116.694187 264 8034ft 243kts
18-Aug-20 21:12 32.711087 -116.772828 264 7877ft 236kts
18-Aug-20 21:13 32.699354 -116.848319 250 7682ft 233kts
18-Aug-20 21:14 32.676054 -116.918192 251 7186ft 194kts
18-Aug-20 21:15 32.681093 -116.977019 296 4818ft 188kts
18-Aug-20 21:16 32.695783 -117.030014 282 3245ft 155kts
18-Aug-20 21:17 32.706174 -117.078340 288 2060ft 153kts
18-Aug-20 21:18 32.717869 -117.125569 285 1582ft 150kts
18-Aug-20 21:19 32.729552 -117.173435 285 179ft 147kts
18-Aug-20 21:20 32.735018 -117.195798 286 28ft 22kts
18-Aug-20 21:21 32.734912 -117.199101 266 28ft 0kts
18-Aug-20 21:22 32.734912 -117.199104 266 28ft 0kts
18-Aug-20 21:23 32.735692 -117.202798 285 28ft 27kts
18-Aug-20 21:24 32.733849 -117.206923 178 28ft 14kts
18-Aug-20 21:25 32.732545 -117.207125 192 28ft 0kts
18-Aug-20 21:26 32.732475 -117.207145 192 28ft 0kts

Navigation Log

Ident Type
Flight plan parsing failed, navigation log unavailable